Time;durP1;ratioP1;P1;durP2;ratioP2;P2;SDS_P1;SDS_P2;PMS_P1;PMS_P2;Temp;Humidity;BMP_temperature;BMP_pressure;BME280_temperature;BME280_humidity;BME280_pressure;Samples;Min_cycle;Max_cycle;Signal;HPM_P1;HPM_P2
2022/12/13 00:01:16;;;;;;;21.50;7.73;;;;;;;-2.71;100.00;99335.44;12208722;19;20487;-81
2022/12/13 00:05:18;;;;;;;26.17;9.35;;;;;;;-2.71;100.00;99335.44;12209421;19;20334;-82
2022/12/13 00:09:21;;;;;;;24.73;8.70;;;;;;;-2.72;100.00;99334.59;12184553;19;20036;-81
2022/12/13 00:13:22;;;;;;;;;;;;;;;-2.74;100.00;99333.91;12205004;19;20013;-80
2022/12/13 00:17:24;;;;;;;18.92;8.00;;;;;;;-2.80;100.00;99327.38;12205490;19;19914;-80
2022/12/13 00:21:29;;;;;;;18.30;8.10;;;;;;;-2.82;100.00;99334.81;12179700;19;20060;-81
2022/12/13 00:25:32;;;;;;;27.48;9.23;;;;;;;-2.88;100.00;99327.44;12202504;19;20059;-82
2022/12/13 00:29:35;;;;;;;24.80;8.75;;;;;;;-2.90;100.00;99326.75;12207047;19;20014;-82
2022/12/13 00:33:38;;;;;;;21.70;8.73;;;;;;;-2.95;100.00;99317.50;12178398;19;20038;-81
2022/12/13 00:37:40;;;;;;;25.27;9.18;;;;;;;-3.00;100.00;99313.50;12239792;19;19998;-78
2022/12/13 00:41:42;;;;;;;20.45;8.32;;;;;;;-3.04;100.00;99308.59;12232457;19;19998;-78
2022/12/13 00:45:44;;;;;;;;;;;;;;;-3.09;100.00;99305.63;12218172;19;20006;-83
2022/12/13 00:49:46;;;;;;;24.75;10.15;;;;;;;-3.15;100.00;99295.50;12202065;19;19914;-81
2022/12/13 00:53:47;;;;;;;21.83;8.93;;;;;;;-3.20;100.00;99290.66;12177075;19;20007;-81
2022/12/13 00:57:50;;;;;;;26.87;10.50;;;;;;;-3.25;100.00;99291.16;12201503;19;20002;-81
2022/12/13 01:01:52;;;;;;;24.42;9.77;;;;;;;-3.30;100.00;99285.47;12197614;19;20263;-82
2022/12/13 01:05:54;;;;;;;26.48;9.75;;;;;;;-3.34;100.00;99285.97;12181889;19;20594;-79
2022/12/13 01:10:16;;;;;;;28.08;10.70;;;;;;;-3.42;100.00;99281.47;12200217;19;20014;-80
2022/12/13 01:14:18;;;;;;;21.55;9.68;;;;;;;-3.44;100.00;99275.41;12199164;19;20468;-82
2022/12/13 01:18:19;;;;;;;27.02;9.50;;;;;;;-3.46;100.00;99280.13;12177336;19;20013;-82
2022/12/13 01:22:21;;;;;;;22.25;8.65;;;;;;;-3.52;100.00;99284.34;12196460;19;20011;-81
2022/12/13 01:26:23;;;;;;;25.45;9.60;;;;;;;-3.54;100.00;99285.53;12215153;19;20472;-78
2022/12/13 01:30:25;;;;;;;16.05;5.97;;;;;;;-3.56;100.00;99287.56;12193060;19;20484;-82
2022/12/13 01:34:27;;;;;;;23.55;9.18;;;;;;;-3.57;100.00;99283.19;12202956;19;20010;-82
2022/12/13 01:38:29;;;;;;;28.83;10.80;;;;;;;-3.59;100.00;99296.00;12196920;19;20007;-81
2022/12/13 01:42:30;;;;;;;21.42;8.25;;;;;;;-3.61;100.00;99284.53;12174963;19;20007;-81
2022/12/13 01:46:34;;;;;;;21.05;9.57;;;;;;;-3.59;100.00;99277.16;12197434;19;20011;-80
2022/12/13 01:50:41;;;;;;;22.95;9.82;;;;;;;-3.60;100.00;99276.31;12188393;19;20014;-80
2022/12/13 01:54:47;;;;;;;24.98;9.32;;;;;;;-3.61;100.00;99279.16;12196039;19;20006;-82
2022/12/13 01:58:53;;;;;;;26.08;10.05;;;;;;;-3.57;100.00;99277.78;12196916;19;20013;-81
2022/12/13 02:02:58;;;;;;;32.05;9.50;;;;;;;-3.58;100.00;99284.19;12174187;19;20007;-82
2022/12/13 02:07:00;;;;;;;20.77;9.35;;;;;;;-3.57;100.00;99284.03;12210749;19;20556;-82
2022/12/13 02:11:02;;;;;;;24.77;9.13;;;;;;;-3.56;100.00;99283.03;12197621;19;20003;-81
2022/12/13 02:15:10;;;;;;;28.25;10.02;;;;;;;-3.56;100.00;99279.50;12172215;19;20761;-82
2022/12/13 02:19:33;;;;;;;26.88;10.45;;;;;;;-3.57;100.00;99286.75;12193396;19;20034;-80
2022/12/13 02:23:53;;;;;;;26.23;10.35;;;;;;;-3.55;100.00;99292.78;12190417;19;20134;-82
2022/12/13 02:28:32;;;;;;;28.90;10.88;;;;;;;-3.67;100.00;99286.91;12185973;19;21065;-81
2022/12/13 02:32:48;;;;;;;34.40;11.93;;;;;;;-3.76;100.00;99295.16;12196033;19;20457;-80
2022/12/13 02:37:01;;;;;;;31.33;11.10;;;;;;;-3.81;100.00;99290.28;12174769;19;20055;-80
2022/12/13 02:41:15;;;;;;;30.77;11.38;;;;;;;-3.87;100.00;99296.34;12196759;19;20014;-82
2022/12/13 02:45:22;;;;;;;30.27;12.50;;;;;;;-4.01;100.00;99295.22;12174503;19;20051;-80
2022/12/13 02:49:30;;;;;;;29.23;11.65;;;;;;;-4.06;100.00;99285.94;12195883;19;20007;-80
2022/12/13 02:53:33;;;;;;;35.67;11.05;;;;;;;-4.10;100.00;99273.81;12191569;19;20043;-81
2022/12/13 02:57:38;;;;;;;31.20;13.32;;;;;;;-4.22;100.00;99260.72;12174671;19;20723;-80
2022/12/13 03:02:04;;;;;;;37.42;12.68;;;;;;;-4.27;100.00;99257.69;12194153;19;20036;-79
2022/12/13 03:06:31;;;;;;;35.22;13.48;;;;;;;-4.32;100.00;99262.72;12181976;19;20467;-79
2022/12/13 03:10:47;;;;;;;30.27;12.18;;;;;;;-4.36;100.00;99253.34;12219487;19;20011;-82
2022/12/13 03:15:09;;;;;;;31.52;12.23;;;;;;;-4.38;100.00;99256.19;12175553;19;20007;-82
2022/12/13 03:19:12;;;;;;;29.25;10.95;;;;;;;-4.38;100.00;99266.09;12205650;19;20081;-79
2022/12/13 03:23:15;;;;;;;36.47;12.63;;;;;;;-4.39;100.00;99265.25;12203721;19;20010;-82
2022/12/13 03:27:17;;;;;;;32.08;11.90;;;;;;;-4.36;100.00;99264.09;12185664;19;20007;-82
2022/12/13 03:31:19;;;;;;;32.22;12.90;;;;;;;-4.32;100.00;99260.03;12230359;19;20002;-77
2022/12/13 03:35:20;;;;;;;28.02;12.23;;;;;;;-4.41;100.00;99255.69;12246435;19;20011;-80
2022/12/13 03:39:23;;;;;;;33.17;12.35;;;;;;;-4.43;100.00;99253.16;12186733;19;20021;-82
2022/12/13 03:43:25;;;;;;;35.60;12.57;;;;;;;-4.47;100.00;99249.13;12200240;19;20415;-82
2022/12/13 03:47:26;;;;;;;36.95;12.45;;;;;;;-4.53;100.00;99257.84;12203074;19;20513;-82
2022/12/13 03:51:28;;;;;;;29.83;12.60;;;;;;;-4.58;100.00;99249.47;12186030;19;20014;-80
2022/12/13 03:55:30;;;;;;;37.60;13.73;;;;;;;-4.62;100.00;99248.94;12208055;19;20002;-79
2022/12/13 03:59:31;;;;;;;36.40;13.13;;;;;;;-4.64;100.00;99250.97;12202174;19;20011;-82
2022/12/13 04:03:33;;;;;;;39.97;13.67;;;;;;;-4.74;100.00;99242.19;12180341;19;20025;-82
2022/12/13 04:07:35;;;;;;;34.25;13.63;;;;;;;-4.82;100.00;99245.72;12203556;19;20090;-82
2022/12/13 04:15:57;;;;;;;35.15;12.93;;;;;;;-4.97;100.00;99243.81;12210653;19;20040;-82
2022/12/13 04:19:59;;;;;;;40.53;13.77;;;;;;;-5.04;100.00;99231.06;12204420;19;20013;-82
2022/12/13 04:24:00;;;;;;;35.83;12.27;;;;;;;-5.08;100.00;99247.69;12179182;19;21354;-82
2022/12/13 04:28:02;;;;;;;42.53;14.23;;;;;;;-5.12;100.00;99252.50;12203429;19;20579;-81
2022/12/13 04:32:04;;;;;;;38.83;14.10;;;;;;;-5.18;100.00;99252.31;12202419;19;20011;-81
2022/12/13 04:36:26;;;;;;;37.57;14.07;;;;;;;-5.16;100.00;99244.97;12190664;19;20051;-81
2022/12/13 04:40:33;;;;;;;41.45;13.52;;;;;;;-5.15;100.00;99241.25;12206930;19;20062;-81
2022/12/13 04:44:35;;;;;;;36.25;13.43;;;;;;;-5.13;100.00;99244.63;12201679;19;20011;-82
2022/12/13 04:48:37;;;;;;;;;;;;;;;-5.15;100.00;99250.16;12191897;19;20650;-81
2022/12/13 04:52:39;;;;;;;30.48;11.68;;;;;;;-5.20;100.00;99265.94;12205156;19;20329;-82
2022/12/13 04:56:41;;;;;;;38.93;13.43;;;;;;;-5.23;100.00;99260.91;12186159;19;20006;-81
2022/12/13 05:00:44;;;;;;;34.70;12.73;;;;;;;-5.26;100.00;99271.97;12203705;19;20272;-82
2022/12/13 05:04:46;;;;;;;34.55;14.40;;;;;;;-5.31;100.00;99274.28;12206860;19;20512;-81
2022/12/13 05:08:54;;;;;;;43.40;14.18;;;;;;;-5.42;100.00;99274.56;12181983;19;20032;-81
2022/12/13 05:13:01;;;;;;;41.60;13.98;;;;;;;-5.52;100.00;99267.47;12209443;19;20014;-82
2022/12/13 05:17:03;;;;;;;31.92;12.00;;;;;;;-5.55;100.00;99266.97;12205691;19;20031;-81
2022/12/13 05:21:07;;;;;;;31.67;12.93;;;;;;;-5.58;100.00;99267.28;12185752;19;20010;-80
2022/12/13 05:25:10;;;;;;;39.13;15.98;;;;;;;-5.63;100.00;99270.41;12204661;19;20058;-82
2022/12/13 05:29:11;;;;;;;45.63;15.70;;;;;;;-5.68;100.00;99272.75;12214695;19;21464;-81
2022/12/13 05:33:13;;;;;;;38.03;14.90;;;;;;;-5.70;100.00;99265.88;12182421;19;20607;-81
2022/12/13 05:37:15;;;;;;;36.07;14.83;;;;;;;-5.73;100.00;99264.34;12201380;19;20259;-81
2022/12/13 05:41:20;;;;;;;45.20;15.37;;;;;;;-5.78;100.00;99255.91;12208406;19;20250;-81
2022/12/13 05:45:23;;;;;;;34.72;12.80;;;;;;;-5.84;100.00;99246.66;12184663;19;20778;-78
2022/12/13 05:49:24;;;;;;;32.22;13.45;;;;;;;-5.89;100.00;99243.63;12211467;19;20013;-79
2022/12/13 05:53:26;;;;;;;38.97;13.70;;;;;;;-5.91;100.00;99239.41;12205710;19;20014;-81
2022/12/13 05:57:31;;;;;;;36.15;12.98;;;;;;;-5.96;100.00;99237.22;12184941;19;20534;-79
2022/12/13 06:01:34;;;;;;;39.97;14.55;;;;;;;-6.11;100.00;99236.97;12203584;19;20015;-80
2022/12/13 06:05:44;;;;;;;36.42;12.90;;;;;;;-6.27;100.00;99224.28;12190943;19;20027;-78
2022/12/13 06:09:45;;;;;;;41.20;14.57;;;;;;;-6.37;100.00;99212.81;12239359;19;20066;-77
2022/12/13 06:13:50;;;;;;;31.52;13.05;;;;;;;-6.46;100.00;99236.03;12245975;19;20036;-77
2022/12/13 06:18:01;;;;;;;38.10;14.57;;;;;;;-6.50;100.00;99250.75;12227942;19;19999;-77
2022/12/13 06:22:02;;;;;;;26.03;8.77;;;;;;;-6.53;100.00;99255.56;12246506;19;20003;-78
2022/12/13 06:26:05;;;;;;;37.77;13.30;;;;;;;-6.57;100.00;99249.69;12244009;19;20353;-78
2022/12/13 06:30:08;;;;;;;39.33;14.27;;;;;;;-6.57;100.00;99252.38;12226923;19;20019;-77
2022/12/13 06:34:09;;;;;;;45.22;14.93;;;;;;;-6.58;100.00;99258.69;12235308;19;20015;-78
2022/12/13 06:38:15;;;;;;;34.67;13.77;;;;;;;-6.68;100.00;99263.31;12232861;19;20034;-77
2022/12/13 06:42:32;;;;;;;41.30;13.90;;;;;;;-6.75;100.00;99248.81;12221108;19;20000;-79
2022/12/13 06:46:33;;;;;;;38.17;13.82;;;;;;;-6.72;100.00;99256.56;12212617;19;20073;-80
2022/12/13 06:50:35;;;;;;;43.13;15.05;;;;;;;-6.65;100.00;99254.97;12202286;19;20018;-79
2022/12/13 06:54:37;;;;;;;34.47;14.73;;;;;;;-6.63;100.00;99253.00;12181975;19;20014;-81
2022/12/13 06:58:40;;;;;;;40.55;15.68;;;;;;;-6.58;100.00;99241.78;12208284;19;20010;-80
2022/12/13 07:02:42;;;;;;;31.45;12.55;;;;;;;-6.56;100.00;99255.88;12180861;19;20023;-80
2022/12/13 07:06:44;;;;;;;36.00;14.23;;;;;;;-6.59;100.00;99240.13;12208902;19;20023;-79
2022/12/13 07:10:45;;;;;;;36.50;13.80;;;;;;;-6.63;100.00;99253.00;12205337;19;20615;-80
2022/12/13 07:14:50;;;;;;;41.47;14.90;;;;;;;-6.63;100.00;99250.31;12180968;19;20010;-77
2022/12/13 07:18:59;;;;;;;49.15;16.77;;;;;;;-6.61;100.00;99253.66;12207857;19;20721;-78
2022/12/13 07:23:02;;;;;;;42.47;16.13;;;;;;;-6.55;100.00;99247.69;12181923;19;20014;-79
2022/12/13 07:27:03;;;;;;;47.47;18.17;;;;;;;-6.49;100.00;99246.22;12180460;19;20003;-81
2022/12/13 07:31:07;;;;;;;59.28;17.00;;;;;;;-6.44;100.00;99242.09;12207269;19;20070;-80
2022/12/13 07:35:09;;;;;;;48.25;17.73;;;;;;;-6.39;100.00;99238.09;12203756;19;20035;-78
2022/12/13 07:39:11;;;;;;;47.43;16.37;;;;;;;-6.36;100.00;99246.69;12201789;19;20010;-80
2022/12/13 07:43:14;;;;;;;39.10;13.80;;;;;;;-6.27;100.00;99237.69;12188387;19;20059;-79
2022/12/13 07:47:16;;;;;;;40.92;14.85;;;;;;;-6.13;100.00;99246.16;12206183;19;20006;-80
2022/12/13 07:51:18;;;;;;;43.67;13.97;;;;;;;-6.03;100.00;99253.13;12185150;19;20501;-79
2022/12/13 07:55:20;;;;;;;37.20;14.93;;;;;;;-5.92;100.00;99232.34;12203277;19;20015;-78
2022/12/13 07:59:35;;;;;;;36.00;14.18;;;;;;;-5.78;100.00;99240.66;12181564;19;20476;-79
2022/12/13 08:03:37;;;;;;;32.50;13.23;;;;;;;-5.68;100.00;99229.81;12214011;19;20026;-79
2022/12/13 08:07:39;;;;;;;;;;;;;;;-5.59;100.00;99228.84;12218122;19;20018;-80
2022/12/13 08:11:42;;;;;;;69.55;23.23;;;;;;;-5.49;100.00;99239.47;12189490;19;19926;-79
2022/12/13 08:15:43;;;;;;;48.97;17.25;;;;;;;-5.36;100.00;99247.06;12247446;19;20042;-76
2022/12/13 08:19:45;;;;;;;38.37;15.47;;;;;;;-5.27;100.00;99249.59;12241002;19;20732;-78
2022/12/13 08:23:47;;;;;;;34.83;14.07;;;;;;;-5.21;100.00;99253.50;12186188;19;21199;-77
2022/12/13 08:27:49;;;;;;;36.70;15.07;;;;;;;-5.11;100.00;99259.59;12200082;19;20031;-79
2022/12/13 08:31:51;;;;;;;34.50;13.85;;;;;;;-5.00;100.00;99252.22;12203981;19;20006;-79
2022/12/13 08:35:53;;;;;;;43.70;17.70;;;;;;;-4.93;100.00;99250.56;12184882;19;20377;-80
2022/12/13 08:39:54;;;;;;;38.10;13.73;;;;;;;-4.84;100.00;99250.41;12204304;19;20011;-78
2022/12/13 08:43:56;;;;;;;35.17;12.93;;;;;;;-4.76;100.00;99246.88;12203543;19;20028;-80
2022/12/13 08:48:00;;;;;;;32.63;13.77;;;;;;;-4.68;100.00;99244.22;12183759;19;20006;-80
2022/12/13 08:52:02;;;;;;;26.23;11.88;;;;;;;-4.56;100.00;99254.66;12202401;19;20082;-80
2022/12/13 08:56:07;;;;;;;32.13;12.27;;;;;;;-4.46;100.00;99256.19;12206769;19;20696;-80
2022/12/13 09:00:18;;;;;;;37.58;12.70;;;;;;;-4.30;100.00;99257.19;12180645;19;20260;-80
2022/12/13 09:04:19;;;;;;;34.58;11.93;;;;;;;-4.24;100.00;99275.38;12207913;19;20074;-78
2022/12/13 09:08:37;;;;;;;35.67;12.95;;;;;;;-4.11;100.00;99273.00;12181418;19;20014;-80
2022/12/13 09:12:41;;;;;;;29.75;11.95;;;;;;;-3.97;100.00;99293.84;12202084;19;20010;-80
2022/12/13 09:16:43;;;;;;;28.83;12.50;;;;;;;-3.81;100.00;99295.66;12208401;19;20009;-80
2022/12/13 09:20:55;;;;;;;29.00;12.60;;;;;;;-3.70;100.00;99289.09;12180569;19;20022;-79
2022/12/13 09:25:13;;;;;;;37.70;14.45;;;;;;;-3.71;100.00;99293.66;12201251;19;20011;-77
2022/12/13 09:29:24;;;;;;;34.85;13.40;;;;;;;-3.70;100.00;99298.00;12180142;19;20010;-83
2022/12/13 09:33:26;;;;;;;33.23;13.27;;;;;;;-3.65;100.00;99294.00;12206624;19;20014;-80
2022/12/13 09:37:31;;;;;;;34.78;13.10;;;;;;;-3.54;100.00;99282.84;12204039;19;20515;-81
2022/12/13 09:41:38;;;;;;;33.00;13.27;;;;;;;-3.41;100.00;99280.47;12181420;19;20042;-81
2022/12/13 09:45:44;;;;;;;38.42;14.23;;;;;;;-3.29;100.00;99270.16;12199341;19;20021;-80
2022/12/13 09:49:46;;;;;;;35.83;13.60;;;;;;;-3.09;100.00;99275.97;12206848;19;20031;-80
2022/12/13 09:53:54;;;;;;;28.60;11.50;;;;;;;-2.91;100.00;99275.72;12178255;19;20014;-78
2022/12/13 09:57:57;;;;;;;29.27;11.07;;;;;;;-2.75;100.00;99284.53;12203083;19;20006;-79
2022/12/13 10:02:16;;;;;;;28.67;11.20;;;;;;;-2.56;100.00;99279.69;12197938;19;20007;-81
2022/12/13 10:06:23;;;;;;;25.73;11.00;;;;;;;-2.45;100.00;99282.00;12183356;19;20079;-80
2022/12/13 10:10:26;;;;;;;23.45;9.93;;;;;;;-2.35;100.00;99270.97;12198809;19;20007;-80
2022/12/13 10:14:35;;;;;;;29.70;11.40;;;;;;;-2.20;100.00;99268.31;12179696;19;20031;-80
2022/12/13 10:18:40;;;;;;;25.55;10.43;;;;;;;-2.07;99.18;99250.50;12199912;19;20031;-79
2022/12/13 10:22:41;;;;;;;29.85;10.05;;;;;;;-1.91;98.16;99252.19;12196852;19;20010;-80
2022/12/13 10:27:12;;;;;;;35.22;12.70;;;;;;;-1.75;97.49;99253.09;12187929;19;20010;-79
2022/12/13 10:31:18;;;;;;;28.33;12.07;;;;;;;-1.68;97.30;99244.03;12207102;19;20010;-80
2022/12/13 10:35:33;;;;;;;33.20;12.30;;;;;;;-1.60;96.32;99251.25;12190789;19;20015;-80
2022/12/13 10:39:43;;;;;;;29.13;11.25;;;;;;;-1.57;96.40;99240.06;12209476;19;20002;-80
2022/12/13 10:44:10;;;;;;;31.75;11.43;;;;;;;-1.56;94.81;99230.91;12207773;19;20047;-77
2022/12/13 10:48:21;;;;;;;23.70;10.05;;;;;;;-1.52;94.92;99218.69;12194038;19;20483;-76
2022/12/13 10:52:33;;;;;;;24.02;10.60;;;;;;;-1.46;94.42;99222.53;12207767;19;20394;-80
2022/12/13 10:56:49;;;;;;;25.98;11.02;;;;;;;-1.34;94.10;99218.31;12189960;19;20027;-79
2022/12/13 11:00:50;;;;;;;25.98;10.85;;;;;;;-1.23;93.96;99211.59;12204974;19;20075;-80
2022/12/13 11:04:52;;;;;;;23.52;9.65;;;;;;;-1.19;92.42;99212.91;12209916;19;20381;-80
2022/12/13 11:08:54;;;;;;;24.55;11.45;;;;;;;-1.18;90.97;99209.19;12191434;19;20024;-80
2022/12/13 11:13:05;;;;;;;24.15;9.88;;;;;;;-1.05;91.48;99205.81;12207804;19;20026;-81
2022/12/13 11:17:15;;;;;;;19.88;8.90;;;;;;;-0.97;91.23;99189.47;12206744;19;20023;-79
2022/12/13 11:21:25;;;;;;;21.23;8.77;;;;;;;-0.87;90.51;99184.56;12185752;19;20121;-79
2022/12/13 11:25:37;;;;;;;25.35;10.63;;;;;;;-0.85;88.23;99170.88;12219228;19;20034;-82
2022/12/13 11:29:58;;;;;;;22.83;9.45;;;;;;;-0.75;88.72;99177.63;12185849;19;20024;-80
2022/12/13 11:34:38;;;;;;;21.92;9.10;;;;;;;-0.69;87.44;99186.84;12213006;19;20006;-79
2022/12/13 11:39:13;;;;;;;16.08;8.63;;;;;;;-0.65;88.69;99190.03;12203380;19;20016;-79
2022/12/13 11:43:47;;;;;;;21.63;9.60;;;;;;;-0.59;88.28;99192.78;12223613;19;20078;-81
2022/12/13 11:48:00;;;;;;;20.98;8.10;;;;;;;-0.52;88.40;99177.44;12234864;19;20002;-78
2022/12/13 11:52:16;;;;;;;20.33;9.07;;;;;;;-0.42;88.91;99160.03;12248260;19;20054;-81
2022/12/13 11:56:44;;;;;;;15.77;7.78;;;;;;;-0.29;89.47;99161.00;12226448;19;20007;-79
2022/12/13 12:01:04;;;;;;;18.95;8.00;;;;;;;-0.05;90.36;99157.00;12196277;19;20006;-81
2022/12/13 12:05:27;;;;;;;19.58;9.05;;;;;;;0.23;89.63;99154.28;12211405;19;20023;-81
2022/12/13 12:09:31;;;;;;;19.10;8.55;;;;;;;0.39;88.28;99145.00;12189792;19;20042;-80
2022/12/13 12:13:41;;;;;;;21.20;8.57;;;;;;;0.27;86.35;99138.47;12205329;19;20010;-80
2022/12/13 12:17:53;;;;;;;14.73;7.25;;;;;;;0.22;86.31;99122.81;12184765;19;20018;-81
2022/12/13 12:22:13;;;;;;;20.20;8.43;;;;;;;0.34;86.13;99127.66;12205653;19;20056;-81
2022/12/13 12:26:20;;;;;;;18.05;7.47;;;;;;;0.66;86.41;99129.69;12206954;19;20010;-79
2022/12/13 12:30:26;;;;;;;16.45;7.07;;;;;;;1.10;85.95;99122.09;12181409;19;20432;-78
2022/12/13 12:35:02;;;;;;;13.75;6.43;;;;;;;1.35;83.89;99117.75;12204359;19;20467;-80
2022/12/13 12:39:41;;;;;;;15.45;7.40;;;;;;;1.25;82.04;99119.19;12185338;19;20046;-82
2022/12/13 12:43:44;;;;;;;13.07;6.28;;;;;;;1.09;81.99;99121.25;12204175;19;19999;-80
2022/12/13 12:48:06;;;;;;;15.80;7.78;;;;;;;0.91;82.05;99116.41;12187497;19;20014;-80
2022/12/13 12:52:59;;;;;;;14.55;6.90;;;;;;;0.82;81.35;99106.78;12203395;19;20025;-81
2022/12/13 12:57:32;;;;;;;14.45;6.95;;;;;;;0.77;81.36;99109.25;12188114;19;20047;-77
2022/12/13 13:02:11;;;;;;;16.60;6.97;;;;;;;0.78;81.16;99121.81;12209063;19;20038;-77
2022/12/13 13:06:16;;;;;;;17.00;6.75;;;;;;;0.63;79.75;99113.00;12231372;19;20005;-77
2022/12/13 13:10:20;;;;;;;15.68;6.90;;;;;;;0.62;80.09;99116.72;12207507;19;20013;-80
2022/12/13 13:14:38;;;;;;;14.82;7.25;;;;;;;0.66;80.05;99110.72;12210419;19;20010;-81
2022/12/13 13:18:51;;;;;;;16.73;6.88;;;;;;;0.65;79.11;99109.03;12211265;19;20003;-78
2022/12/13 13:22:55;;;;;;;16.05;6.53;;;;;;;0.54;77.99;99104.19;12188444;19;20457;-78
2022/12/13 13:27:30;;;;;;;14.90;6.47;;;;;;;0.42;78.63;99098.53;12205465;19;20777;-80
2022/12/13 13:32:10;;;;;;;15.13;7.15;;;;;;;0.28;78.52;99118.47;12177873;19;20077;-80
2022/12/13 13:36:38;;;;;;;18.48;6.70;;;;;;;0.23;78.65;99126.34;12206773;19;20102;-81
2022/12/13 13:40:39;;;;;;;15.02;6.68;;;;;;;0.16;78.49;99122.78;12181262;19;20010;-78
2022/12/13 13:44:44;;;;;;;14.20;6.47;;;;;;;0.15;78.49;99121.06;12202885;19;20023;-81
2022/12/13 13:48:55;;;;;;;13.75;6.80;;;;;;;0.21;78.63;99107.59;12186803;19;20002;-81
2022/12/13 13:53:21;;;;;;;16.98;7.70;;;;;;;0.25;77.38;99109.91;12204084;19;20039;-80
2022/12/13 13:57:32;;;;;;;12.77;6.45;;;;;;;0.26;77.49;99101.56;12207967;19;20418;-79
2022/12/13 14:02:05;;;;;;;23.27;8.88;;;;;;;0.30;77.53;99100.13;12182676;19;20010;-80
2022/12/13 14:06:20;;;;;;;16.38;6.85;;;;;;;0.42;77.88;99090.38;12207933;19;20070;-81
2022/12/13 14:10:59;;;;;;;15.20;7.30;;;;;;;0.44;76.90;99104.56;12187778;19;20026;-81
2022/12/13 14:15:20;;;;;;;17.75;8.23;;;;;;;0.42;76.85;99103.94;12200668;19;20534;-80
2022/12/13 14:19:45;;;;;;;16.73;7.38;;;;;;;0.33;75.59;99094.31;12182263;19;20018;-79
2022/12/13 14:24:29;;;;;;;18.35;8.05;;;;;;;0.25;75.91;99094.47;12207598;19;20094;-81
2022/12/13 14:28:55;;;;;;;13.55;6.68;;;;;;;0.17;75.66;99105.47;12183992;19;20009;-80
2022/12/13 14:32:57;;;;;;;17.50;7.10;;;;;;;0.05;75.71;99107.06;12198833;19;20002;-80
2022/12/13 14:37:04;;;;;;;12.20;6.90;;;;;;;-0.10;75.95;99116.13;12183779;19;20410;-79
2022/12/13 14:41:15;;;;;;;18.45;7.10;;;;;;;-0.20;76.44;99114.84;12203179;19;20034;-80
2022/12/13 14:45:25;;;;;;;18.17;6.63;;;;;;;-0.35;76.32;99109.50;12204288;19;21538;-80
2022/12/13 14:49:35;;;;;;;13.75;6.18;;;;;;;-0.49;76.35;99105.84;12184674;19;20006;-80
2022/12/13 14:53:41;;;;;;;16.08;6.20;;;;;;;-0.61;76.85;99102.00;12201712;19;19999;-81
2022/12/13 14:57:52;;;;;;;23.23;8.40;;;;;;;-0.75;76.44;99095.63;12183262;19;20348;-81
2022/12/13 15:02:01;;;;;;;18.45;6.93;;;;;;;-0.82;77.09;99103.69;12199881;19;20034;-81
2022/12/13 15:06:03;;;;;;;17.50;7.60;;;;;;;-0.93;77.30;99099.63;12203539;19;20003;-80
2022/12/13 15:10:45;;;;;;;16.43;7.13;;;;;;;-0.99;77.49;99086.88;12181508;19;21407;-79
2022/12/13 15:14:55;;;;;;;24.00;8.27;;;;;;;-1.14;77.66;99094.22;12213398;19;20007;-79
2022/12/13 15:19:05;;;;;;;18.83;7.63;;;;;;;-1.25;78.39;99092.00;12196595;19;20042;-78
2022/12/13 15:23:36;;;;;;;33.65;13.02;;;;;;;-1.34;78.52;99083.19;12215858;19;20006;-81
2022/12/13 15:27:59;;;;;;;28.40;11.05;;;;;;;-1.43;78.82;99081.63;12194569;19;20015;-80
2022/12/13 15:32:02;;;;;;;26.20;11.35;;;;;;;-1.46;78.85;99088.28;12212566;19;20146;-79
2022/12/13 15:36:08;;;;;;;72.57;23.17;;;;;;;-1.52;79.23;99083.59;12209768;19;20011;-79
2022/12/13 15:40:13;;;;;;;39.30;15.48;;;;;;;-1.59;79.29;99071.06;12190373;19;20015;-80
2022/12/13 15:44:22;;;;;;;24.40;11.25;;;;;;;-1.59;79.60;99071.06;12207382;19;20031;-79
2022/12/13 15:48:35;;;;;;;25.30;9.70;;;;;;;-1.71;79.31;99055.34;12211863;19;20014;-78
2022/12/13 15:52:40;;;;;;;26.42;10.80;;;;;;;-1.76;79.92;99051.53;12183857;19;20085;-79
2022/12/13 15:57:12;;;;;;;26.90;9.65;;;;;;;-1.80;80.02;99047.53;12210443;19;20023;-81
2022/12/13 16:01:34;;;;;;;17.40;7.87;;;;;;;-1.89;80.15;99031.44;12188867;19;20006;-80
2022/12/13 16:05:41;;;;;;;15.95;5.88;;;;;;;-1.93;80.57;99029.31;12208473;19;20015;-80
2022/12/13 16:09:47;;;;;;;18.48;8.50;;;;;;;-1.92;80.92;99017.47;12210522;19;19999;-80
2022/12/13 16:13:49;;;;;;;34.65;13.18;;;;;;;-1.97;80.96;99009.09;12179451;19;20087;-79
2022/12/13 16:18:18;;;;;;;23.67;9.30;;;;;;;-2.00;81.55;99010.31;12209557;19;20058;-79
2022/12/13 16:22:27;;;;;;;23.27;8.52;;;;;;;-1.98;81.70;99010.97;12186047;19;20078;-81
2022/12/13 16:26:30;;;;;;;22.27;9.35;;;;;;;-1.97;81.79;99009.94;12208690;19;20003;-80
2022/12/13 16:30:50;;;;;;;;;;;;;;;-1.99;81.96;99006.59;12207323;19;20100;-79
2022/12/13 16:34:52;;;;;;;21.90;8.35;;;;;;;-1.99;82.11;99005.75;12182267;19;19911;-80
2022/12/13 16:38:53;;;;;;;19.73;9.52;;;;;;;-2.05;82.12;98996.56;12210744;19;20011;-81
2022/12/13 16:43:02;;;;;;;23.07;9.67;;;;;;;-2.07;82.25;98993.19;12190273;19;20010;-80
2022/12/13 16:47:08;;;;;;;28.02;12.23;;;;;;;-2.14;82.12;98997.66;12210868;19;20738;-81
2022/12/13 16:51:21;;;;;;;21.50;9.23;;;;;;;-2.18;82.71;98999.91;12206780;19;20006;-83
2022/12/13 16:55:23;;;;;;;25.27;9.40;;;;;;;-2.18;82.78;99009.88;12188464;19;20778;-79
2022/12/13 16:59:26;;;;;;;13.38;6.65;;;;;;;-2.22;82.87;99011.28;12202399;19;20010;-79
2022/12/13 17:03:27;;;;;;;19.70;8.98;;;;;;;-2.28;83.26;99012.88;12199312;19;20034;-77
2022/12/13 17:07:29;;;;;;;23.88;9.77;;;;;;;-2.34;83.14;99005.50;12179018;19;20070;-79
2022/12/13 17:11:32;;;;;;;20.83;9.63;;;;;;;-2.39;83.50;98994.44;12204157;19;20002;-80
2022/12/13 17:15:34;;;;;;;25.52;8.80;;;;;;;-2.42;84.11;98989.41;12209084;19;20041;-78
2022/12/13 17:19:36;;;;;;;14.50;6.60;;;;;;;-2.46;84.09;98983.56;12189634;19;20010;-77
2022/12/13 17:23:38;;;;;;;24.63;9.52;;;;;;;-2.50;84.17;98976.84;12255158;19;20034;-77
2022/12/13 17:27:40;;;;;;;22.02;9.18;;;;;;;-2.53;84.80;98985.31;12255084;19;19998;-78
2022/12/13 17:31:41;;;;;;;22.58;9.48;;;;;;;-2.49;84.85;98992.03;12225184;19;20011;-83
2022/12/13 17:35:43;;;;;;;24.40;9.60;;;;;;;-2.44;84.86;98999.53;12208999;19;20059;-78
2022/12/13 17:39:45;;;;;;;16.60;8.60;;;;;;;-2.39;84.89;98999.84;12191049;19;20046;-80
2022/12/13 17:43:46;;;;;;;24.92;9.48;;;;;;;-2.36;85.04;98978.72;12209019;19;20076;-79
2022/12/13 17:47:48;;;;;;;19.43;9.33;;;;;;;-2.34;85.06;98971.28;12203084;19;20046;-83
2022/12/13 17:51:52;;;;;;;25.40;9.57;;;;;;;-2.41;85.05;98962.25;12179651;19;20074;-80
2022/12/13 17:56:04;;;;;;;19.83;9.20;;;;;;;-2.45;84.96;98958.25;12204588;19;20026;-81
2022/12/13 18:00:07;;;;;;;21.35;9.23;;;;;;;-2.46;85.50;98978.16;12238584;19;20002;-82
2022/12/13 18:04:12;;;;;;;22.77;10.15;;;;;;;-2.49;85.31;98973.16;12182619;19;20666;-83
2022/12/13 18:08:17;;;;;;;21.50;9.15;;;;;;;-2.49;85.55;98970.44;12203918;19;20093;-81
2022/12/13 18:12:18;;;;;;;19.85;8.82;;;;;;;-2.46;85.77;98956.59;12204437;19;20030;-79
2022/12/13 18:16:21;;;;;;;24.67;9.67;;;;;;;-2.44;85.71;98951.84;12189004;19;20010;-79
2022/12/13 18:20:23;;;;;;;21.95;9.30;;;;;;;-2.39;85.86;98954.78;12207166;19;20031;-80
2022/12/13 18:24:26;;;;;;;23.77;8.95;;;;;;;-2.30;85.84;98945.56;12202803;19;20100;-80
2022/12/13 18:28:28;;;;;;;16.90;8.90;;;;;;;-2.20;85.63;98941.75;12180582;19;20098;-80
2022/12/13 18:32:30;;;;;;;21.05;8.40;;;;;;;-2.15;85.47;98933.91;12203507;19;20022;-80
2022/12/13 18:36:33;;;;;;;19.38;9.38;;;;;;;-2.09;85.43;98920.50;12196277;19;20087;-81
2022/12/13 18:40:36;;;;;;;24.55;9.10;;;;;;;-2.06;85.47;98906.63;12178166;19;20513;-79
2022/12/13 18:44:38;;;;;;;21.73;8.82;;;;;;;-2.07;85.13;98913.06;12203158;19;20006;-77
2022/12/13 18:48:40;;;;;;;21.95;8.45;;;;;;;-2.12;84.76;98930.84;12215051;19;20006;-81
2022/12/13 18:52:42;;;;;;;18.48;8.05;;;;;;;-2.17;84.91;98962.94;12196135;19;20011;-80
2022/12/13 18:56:44;;;;;;;21.27;9.25;;;;;;;-2.13;85.00;98934.56;12216342;19;20774;-80